Terminal Aerodrome Forecast
Issued by NWS

Home | Current Version | Previous Version | Text Only | Print | Product List | Glossary On
Versions: 1 2 3 4 5 6 7 8 9 10 11 12 13 14 15 16 17
000
FTUS43 KILX 282300 RRA
TAFBMI
TAF
KBMI 282345Z 0100/0124 14010KT 1SM -SN BR OVC018
      TEMPO 0100/0104 3/4SM -SN BR VV008
     FM010800 VRB03KT 1SM -SN BR OVC007
     FM011700 30004KT 3SM -SN BR OVC010=

USA.gov is the U.S. government's official web portal to all federal, state and local government web resources and services.